Time;durP1;ratioP1;P1;durP2;ratioP2;P2;SDS_P1;SDS_P2;PMS_P1;PMS_P2;Temp;Humidity;BMP_temperature;BMP_pressure;BME280_temperature;BME280_humidity;BME280_pressure;Samples;Min_cycle;Max_cycle;Signal;HPM_P1;HPM_P2
2024/02/03 00:01:37;;;;;;;1.83;1.53;;;;;;;6.18;94.04;152947.19;5066785;28;21024;-78
2024/02/03 00:04:04;;;;;;;1.60;1.40;;;;;;;6.11;92.99;152930.44;5079853;28;20477;-78
2024/02/03 00:06:31;;;;;;;1.83;1.37;;;;;;;6.08;91.63;152922.69;5059770;28;20466;-78
2024/02/03 00:08:57;;;;;;;1.93;1.37;;;;;;;6.07;91.56;152921.38;5066864;28;20809;-77
2024/02/03 00:11:24;;;;;;;1.53;1.43;;;;;;;6.09;92.26;152926.53;5063219;28;20454;-78
2024/02/03 00:13:50;;;;;;;1.80;1.57;;;;;;;6.09;93.17;152926.53;5060945;28;20508;-77
2024/02/03 00:16:17;;;;;;;2.27;1.67;;;;;;;6.07;92.58;152921.38;5066390;28;20442;-77
2024/02/03 00:18:44;;;;;;;1.53;1.40;;;;;;;6.04;91.85;152913.63;5067013;28;20515;-77
2024/02/03 00:21:11;;;;;;;3.00;1.30;;;;;;;6.03;92.44;152911.09;5065739;28;20493;-77
2024/02/03 00:23:38;;;;;;;1.90;1.67;;;;;;;6.01;93.17;152905.88;5064658;28;20456;-78
2024/02/03 00:26:05;;;;;;;1.80;1.20;;;;;;;5.96;92.70;152891.69;5053364;28;20481;-78
2024/02/03 00:28:31;;;;;;;2.30;1.60;;;;;;;5.98;92.72;152896.91;5066883;28;20436;-77
2024/02/03 00:30:58;;;;;;;2.47;1.53;;;;;;;5.97;93.13;152894.28;5058964;28;20874;-77
2024/02/03 00:33:24;;;;;;;2.20;1.50;;;;;;;5.95;93.81;152890.44;5058273;28;20515;-78
2024/02/03 00:35:52;;;;;;;2.20;1.87;;;;;;;5.87;94.00;152869.81;5065568;28;20983;-78
2024/02/03 00:38:18;;;;;;;1.90;1.60;;;;;;;5.85;93.55;152863.38;5081627;28;20438;-78
2024/02/03 00:40:45;;;;;;;2.40;1.73;;;;;;;5.82;92.88;152856.88;5056221;28;20511;-78
2024/02/03 00:43:14;;;;;;;2.47;1.50;;;;;;;5.80;91.83;152850.44;5064856;28;20482;-78
2024/02/03 00:45:41;;;;;;;1.70;1.37;;;;;;;5.82;91.54;152856.88;5042079;28;20537;-78
2024/02/03 00:48:08;;;;;;;2.37;2.03;;;;;;;5.84;90.89;152860.72;5061473;28;20867;-78
2024/02/03 00:50:35;;;;;;;1.77;1.50;;;;;;;5.88;90.29;152872.34;5064812;28;20461;-77
2024/02/03 00:53:02;;;;;;;3.67;2.00;;;;;;;5.92;90.19;152881.41;5055886;28;20464;-78
2024/02/03 00:55:29;;;;;;;1.80;1.43;;;;;;;5.88;91.24;152872.34;5061007;28;20464;-78
2024/02/03 00:57:56;;;;;;;3.07;1.33;;;;;;;5.79;90.98;152847.81;5063896;28;21036;-78
2024/02/03 01:00:27;;;;;;;1.77;1.53;;;;;;;5.65;89.93;152813.00;5064279;28;20813;-78
2024/02/03 01:02:54;;;;;;;1.70;1.30;;;;;;;5.59;90.92;152797.50;5052012;28;20743;-78
2024/02/03 01:05:20;;;;;;;1.70;1.40;;;;;;;5.51;91.35;152778.19;5064910;28;20442;-78
2024/02/03 01:07:47;;;;;;;2.90;1.87;;;;;;;5.42;91.60;152753.69;5064015;28;20466;-78
2024/02/03 01:10:14;;;;;;;1.40;1.30;;;;;;;5.34;91.01;152733.06;5066641;28;20438;-78
2024/02/03 01:12:41;;;;;;;2.80;1.87;;;;;;;5.29;91.02;152721.47;5063419;28;20576;-78
2024/02/03 01:15:08;;;;;;;1.77;1.10;;;;;;;5.28;91.77;152718.88;5062083;28;20462;-77
2024/02/03 01:17:34;;;;;;;1.83;1.40;;;;;;;5.26;91.39;152712.44;5061333;28;20453;-78
2024/02/03 01:20:01;;;;;;;2.23;1.53;;;;;;;5.25;91.94;152709.84;5053044;28;20805;-78
2024/02/03 01:22:28;;;;;;;2.30;1.47;;;;;;;5.22;92.46;152703.41;5063417;28;20457;-78
2024/02/03 01:24:55;;;;;;;1.63;1.40;;;;;;;5.17;93.07;152689.22;5079088;28;20465;-78
2024/02/03 01:27:22;;;;;;;1.63;1.40;;;;;;;5.12;94.32;152676.31;5063349;28;20505;-78
2024/02/03 01:29:49;;;;;;;1.67;1.43;;;;;;;5.10;95.32;152672.47;5061510;28;20488;-78
2024/02/03 01:32:15;;;;;;;1.73;1.43;;;;;;;5.01;94.89;152649.25;5061558;28;20482;-78
2024/02/03 01:34:42;;;;;;;1.60;1.30;;;;;;;4.96;94.19;152636.38;5061314;28;20449;-78
2024/02/03 01:37:09;;;;;;;2.00;1.43;;;;;;;4.93;94.90;152628.63;5055101;28;20672;-78
2024/02/03 01:39:35;;;;;;;2.27;1.70;;;;;;;4.91;94.79;152624.78;5063187;28;20446;-78
2024/02/03 01:42:02;;;;;;;2.40;1.23;;;;;;;4.93;95.17;152628.63;5066422;28;20453;-78
2024/02/03 01:44:31;;;;;;;3.07;1.33;;;;;;;4.90;96.33;152622.19;5061710;28;20462;-78
2024/02/03 01:46:58;;;;;;;2.27;1.77;;;;;;;4.89;97.09;152619.66;5061097;28;20537;-78
2024/02/03 01:49:25;;;;;;;2.40;1.77;;;;;;;4.99;97.25;152642.81;5065220;28;20435;-78
2024/02/03 01:51:52;;;;;;;2.57;1.50;;;;;;;5.04;97.88;152655.69;5051767;28;20872;-78
2024/02/03 01:54:19;;;;;;;1.33;1.07;;;;;;;5.01;97.69;152649.25;5069727;28;20450;-78
2024/02/03 01:56:47;;;;;;;1.83;1.27;;;;;;;5.02;97.01;152650.56;5069778;28;20440;-78
2024/02/03 01:59:14;;;;;;;2.47;1.50;;;;;;;5.04;97.00;152655.69;5069428;28;20989;-78
2024/02/03 02:01:41;;;;;;;2.33;1.80;;;;;;;5.01;96.98;152647.97;5066095;28;20462;-78
2024/02/03 02:04:08;;;;;;;2.60;1.43;;;;;;;4.99;95.96;152642.81;5069957;28;20495;-78
2024/02/03 02:06:34;;;;;;;2.27;1.40;;;;;;;4.98;96.23;152641.53;5054925;28;20477;-78
2024/02/03 02:09:01;;;;;;;2.10;1.53;;;;;;;4.99;95.89;152642.81;5066824;28;20520;-78
2024/02/03 02:11:28;;;;;;;2.47;1.50;;;;;;;4.97;96.57;152638.97;5059909;28;20465;-77
2024/02/03 02:13:54;;;;;;;2.60;1.80;;;;;;;4.87;96.14;152614.47;5066415;28;20454;-77
2024/02/03 02:16:20;;;;;;;2.37;2.00;;;;;;;4.86;95.93;152611.91;5068963;28;20461;-78
2024/02/03 02:18:48;;;;;;;1.90;1.43;;;;;;;4.86;96.92;152611.91;5060662;28;20455;-78
2024/02/03 02:21:16;;;;;;;1.83;1.40;;;;;;;4.86;97.50;152610.63;5079264;28;20457;-78
2024/02/03 02:23:43;;;;;;;2.17;1.50;;;;;;;4.79;97.44;152592.59;5061727;28;20437;-78
2024/02/03 02:26:09;;;;;;;2.13;1.47;;;;;;;4.78;97.88;152591.28;5069208;28;20438;-78
2024/02/03 02:28:36;;;;;;;1.90;1.50;;;;;;;4.78;98.88;152590.00;5055642;28;20992;-77
2024/02/03 02:31:03;;;;;;;2.63;1.80;;;;;;;4.75;98.30;152583.56;5068510;28;20449;-78
2024/02/03 02:33:29;;;;;;;1.63;1.40;;;;;;;4.75;98.07;152582.25;5068092;28;20473;-77
2024/02/03 02:35:55;;;;;;;1.87;1.33;;;;;;;4.74;97.65;152579.66;5068592;28;20454;-77
2024/02/03 02:38:23;;;;;;;2.17;1.47;;;;;;;4.73;98.28;152577.13;5051263;28;20820;-77
2024/02/03 02:40:50;;;;;;;1.70;1.50;;;;;;;4.71;97.32;152571.97;5068247;28;20454;-78
2024/02/03 02:43:16;;;;;;;2.83;2.00;;;;;;;4.68;97.02;152565.53;5053485;28;20497;-78
2024/02/03 02:45:43;;;;;;;1.97;1.53;;;;;;;4.64;97.26;152553.91;5065232;28;20519;-78
2024/02/03 02:48:09;;;;;;;1.70;1.60;;;;;;;4.64;97.69;152553.91;5061963;28;20485;-78
2024/02/03 02:50:36;;;;;;;2.10;1.50;;;;;;;4.65;97.10;152556.50;5066239;28;20952;-78
2024/02/03 02:53:02;;;;;;;1.93;1.40;;;;;;;4.61;96.78;152547.47;5060951;28;20517;-78
2024/02/03 02:55:30;;;;;;;2.03;1.67;;;;;;;4.63;97.06;152551.34;5065015;28;20462;-78
2024/02/03 02:57:56;;;;;;;1.80;1.53;;;;;;;4.63;97.63;152551.34;5043780;28;20454;-78
2024/02/03 03:00:23;;;;;;;2.03;1.27;;;;;;;4.68;97.72;152564.22;5059815;28;20944;-78
2024/02/03 03:02:49;;;;;;;1.83;1.20;;;;;;;4.68;98.16;152565.53;5060505;28;20443;-78
2024/02/03 03:05:16;;;;;;;2.00;1.30;;;;;;;4.71;98.33;152573.22;5052331;28;20981;-78
2024/02/03 03:07:42;;;;;;;1.50;1.20;;;;;;;4.71;98.04;152573.22;5067666;28;20469;-78
2024/02/03 03:10:09;;;;;;;2.87;1.57;;;;;;;4.74;99.03;152580.97;5069194;28;20499;-77
2024/02/03 03:12:37;;;;;;;2.07;1.57;;;;;;;4.76;98.52;152586.16;5050165;28;20521;-78
2024/02/03 03:15:04;;;;;;;1.77;1.13;;;;;;;4.75;98.69;152583.56;5059470;28;20445;-78
2024/02/03 03:17:31;;;;;;;1.50;1.20;;;;;;;4.74;98.44;152580.97;5079033;28;20446;-78
2024/02/03 03:19:57;;;;;;;1.80;1.23;;;;;;;4.73;98.41;152578.41;5061071;28;20435;-78
2024/02/03 03:22:24;;;;;;;1.67;1.40;;;;;;;4.78;98.67;152590.00;5052284;28;20437;-77
2024/02/03 03:24:50;;;;;;;1.77;1.10;;;;;;;4.85;98.69;152609.31;5053448;28;20521;-78
2024/02/03 03:27:17;;;;;;;1.80;1.10;;;;;;;4.90;99.25;152622.19;5062988;28;20486;-78
2024/02/03 03:29:44;;;;;;;1.60;1.23;;;;;;;4.96;99.10;152635.06;5048633;28;21039;-78
2024/02/03 03:32:11;;;;;;;2.10;1.53;;;;;;;5.00;98.41;152646.72;5064577;28;21000;-78
2024/02/03 03:34:38;;;;;;;2.80;1.20;;;;;;;5.08;98.13;152666.03;5058144;28;20438;-78
2024/02/03 03:37:05;;;;;;;1.57;1.20;;;;;;;5.12;97.71;152676.31;5065781;28;20438;-78
2024/02/03 03:39:31;;;;;;;1.80;1.20;;;;;;;5.13;97.17;152678.94;5060307;28;20458;-78
2024/02/03 03:41:58;;;;;;;1.90;1.30;;;;;;;5.06;96.13;152660.84;5067710;28;20966;-78
2024/02/03 03:44:24;;;;;;;1.93;1.27;;;;;;;5.01;95.79;152647.97;5066511;28;20440;-78
2024/02/03 03:46:54;;;;;;;2.00;1.37;;;;;;;4.96;96.08;152636.38;5062307;28;20442;-78
2024/02/03 03:49:21;;;;;;;1.70;1.33;;;;;;;4.89;95.80;152619.66;5058754;28;20454;-79
2024/02/03 03:51:48;;;;;;;1.30;1.10;;;;;;;4.78;96.24;152591.28;5064182;28;20657;-78
2024/02/03 03:54:14;;;;;;;1.90;1.40;;;;;;;4.68;96.96;152565.53;5053615;28;20470;-78
2024/02/03 03:56:41;;;;;;;1.93;1.27;;;;;;;4.61;97.15;152547.47;5064499;28;20556;-78
2024/02/03 03:59:07;;;;;;;2.57;1.50;;;;;;;4.53;97.60;152526.84;5060255;28;20495;-78
2024/02/03 04:01:34;;;;;;;2.20;1.30;;;;;;;4.44;97.22;152502.38;5053522;28;20447;-78
2024/02/03 04:04:01;;;;;;;1.73;1.27;;;;;;;4.37;97.66;152485.63;5052732;28;20957;-78
2024/02/03 04:06:28;;;;;;;1.50;1.17;;;;;;;4.35;97.13;152480.47;5057537;28;20512;-78
2024/02/03 04:08:54;;;;;;;2.37;1.50;;;;;;;4.31;97.63;152470.19;5055035;28;20470;-78
2024/02/03 04:11:21;;;;;;;1.97;1.57;;;;;;;4.24;98.06;152453.44;5066341;28;20436;-78
2024/02/03 04:13:48;;;;;;;2.60;1.47;;;;;;;4.26;98.35;152457.31;5046177;28;20463;-78
2024/02/03 04:16:14;;;;;;;1.87;1.30;;;;;;;4.24;98.70;152453.44;5063075;28;20567;-78
2024/02/03 04:18:41;;;;;;;2.07;1.40;;;;;;;4.23;98.86;152449.59;5067531;28;20470;-78
2024/02/03 04:21:09;;;;;;;1.40;1.20;;;;;;;4.23;99.39;152449.59;5068076;28;20449;-78
2024/02/03 04:23:35;;;;;;;2.10;1.40;;;;;;;4.23;99.07;152450.88;5050939;28;20480;-78
2024/02/03 04:26:02;;;;;;;1.93;1.30;;;;;;;4.27;99.14;152459.88;5061706;28;20564;-78
2024/02/03 04:28:28;;;;;;;1.77;1.37;;;;;;;4.26;99.85;152457.31;5070392;28;20548;-78
2024/02/03 04:30:58;;;;;;;2.13;1.50;;;;;;;4.38;100.00;152486.91;5062333;28;21079;-78
2024/02/03 04:33:24;;;;;;;4.27;2.97;;;;;;;4.49;100.00;152515.25;5064654;28;20565;-78
2024/02/03 04:35:51;;;;;;;2.20;2.00;;;;;;;4.64;100.00;152555.19;5055464;28;20562;-78
2024/02/03 04:38:19;;;;;;;2.83;2.33;;;;;;;4.65;100.00;152557.78;5062599;28;21005;-78
2024/02/03 04:40:45;;;;;;;2.63;2.33;;;;;;;4.75;99.38;152582.25;5066441;28;20543;-78
2024/02/03 04:43:12;;;;;;;3.03;1.93;;;;;;;4.70;98.96;152569.38;5064872;28;20496;-78
2024/02/03 04:45:38;;;;;;;2.37;1.90;;;;;;;4.76;98.05;152586.16;5063360;28;20467;-78
2024/02/03 04:48:06;;;;;;;2.30;1.87;;;;;;;4.95;95.79;152632.53;5066554;28;20474;-79
2024/02/03 04:50:33;;;;;;;2.33;1.93;;;;;;;5.01;95.39;152649.25;5059731;28;20462;-78
2024/02/03 04:52:59;;;;;;;4.03;2.70;;;;;;;4.98;95.07;152640.28;5065126;28;20499;-78
2024/02/03 04:55:27;;;;;;;2.70;2.23;;;;;;;4.95;94.86;152632.53;5052476;28;20449;-78
2024/02/03 04:57:53;;;;;;;2.10;1.70;;;;;;;4.94;95.10;152631.22;5064107;28;20481;-78
2024/02/03 05:00:21;;;;;;;3.30;2.50;;;;;;;4.88;94.85;152617.06;5055255;28;20438;-78
2024/02/03 05:02:47;;;;;;;4.40;2.40;;;;;;;4.88;95.14;152615.75;5055341;28;20480;-79
2024/02/03 05:05:14;;;;;;;4.23;2.73;;;;;;;4.82;95.23;152601.56;5063855;28;20450;-78
2024/02/03 05:07:43;;;;;;;4.87;3.10;;;;;;;4.82;95.86;152601.56;5059906;28;20478;-78
2024/02/03 05:10:10;;;;;;;3.73;3.10;;;;;;;4.73;96.17;152578.41;5069067;28;20446;-78
2024/02/03 05:12:38;;;;;;;4.77;3.53;;;;;;;4.74;97.34;152580.97;5058314;28;20548;-79
2024/02/03 05:15:05;;;;;;;5.03;3.40;;;;;;;4.80;98.12;152596.44;5079373;28;20508;-78
2024/02/03 05:17:32;;;;;;;4.53;3.63;;;;;;;4.85;98.30;152609.31;5059587;28;20508;-78
2024/02/03 05:19:58;;;;;;;4.40;4.00;;;;;;;4.93;98.98;152628.63;5046166;28;20442;-79
2024/02/03 05:22:25;;;;;;;4.53;3.60;;;;;;;4.97;99.43;152637.69;5038446;28;20458;-78
2024/02/03 05:24:51;;;;;;;5.13;4.30;;;;;;;5.01;99.66;152649.25;5057310;28;20445;-78
2024/02/03 05:27:18;;;;;;;4.60;4.10;;;;;;;5.04;99.62;152655.69;5071186;28;20940;-78
2024/02/03 05:29:45;;;;;;;4.90;4.03;;;;;;;5.08;99.53;152666.03;5052608;28;20496;-78
2024/02/03 05:32:12;;;;;;;6.20;4.47;;;;;;;5.08;100.00;152666.03;5065345;28;20986;-78
2024/02/03 05:34:38;;;;;;;4.60;3.90;;;;;;;5.04;100.00;152655.69;5063635;28;20462;-78
2024/02/03 05:37:05;;;;;;;4.73;4.17;;;;;;;4.99;100.00;152642.81;5070006;28;20495;-78
2024/02/03 05:39:32;;;;;;;5.30;4.57;;;;;;;4.98;100.00;152640.28;5070658;28;20442;-78
2024/02/03 05:41:58;;;;;;;6.10;4.37;;;;;;;4.92;100.00;152627.34;5066603;28;20539;-78
2024/02/03 05:44:25;;;;;;;5.13;4.10;;;;;;;4.91;100.00;152624.78;5071970;28;20940;-78
2024/02/03 05:46:52;;;;;;;4.50;3.90;;;;;;;4.88;100.00;152615.75;5071111;28;20452;-78
2024/02/03 05:49:19;;;;;;;4.70;4.20;;;;;;;4.87;100.00;152614.47;5067358;28;20465;-78
2024/02/03 05:51:48;;;;;;;5.23;4.10;;;;;;;4.87;100.00;152613.22;5065687;28;20454;-78
2024/02/03 05:54:15;;;;;;;4.83;4.30;;;;;;;4.88;100.00;152617.06;5066815;28;20476;-78
2024/02/03 05:56:41;;;;;;;6.63;4.10;;;;;;;4.85;100.00;152608.03;5066949;28;20519;-78
2024/02/03 05:59:08;;;;;;;7.10;4.50;;;;;;;4.81;100.00;152597.72;5068136;28;20851;-78
2024/02/03 06:01:34;;;;;;;5.10;4.60;;;;;;;4.71;100.00;152573.22;5070910;28;20457;-78
2024/02/03 06:04:04;;;;;;;7.40;4.83;;;;;;;4.66;100.00;152559.09;5070814;28;20447;-78
2024/02/03 06:06:31;;;;;;;7.23;5.40;;;;;;;4.69;100.00;152568.06;5064687;28;20844;-78
2024/02/03 06:08:58;;;;;;;5.60;4.80;;;;;;;4.70;100.00;152570.66;5059230;28;20485;-78
2024/02/03 06:11:24;;;;;;;7.33;5.83;;;;;;;4.67;100.00;152562.94;5058107;28;20464;-78
2024/02/03 06:13:51;;;;;;;5.37;4.70;;;;;;;4.69;100.00;152566.78;5073672;28;21152;-78
2024/02/03 06:16:17;;;;;;;7.67;5.60;;;;;;;4.67;100.00;152562.94;5059479;28;20513;-79
2024/02/03 06:18:44;;;;;;;7.47;5.47;;;;;;;4.66;100.00;152559.09;5057729;28;20469;-78
2024/02/03 06:21:13;;;;;;;6.93;5.70;;;;;;;4.63;100.00;152552.59;5059594;28;20490;-79
2024/02/03 06:23:39;;;;;;;9.70;6.00;;;;;;;4.57;100.00;152537.19;5057826;28;20462;-78
2024/02/03 06:26:06;;;;;;;5.70;4.83;;;;;;;4.55;100.00;152530.72;5058578;28;20984;-78
2024/02/03 06:28:32;;;;;;;7.00;5.10;;;;;;;4.48;100.00;152513.97;5074904;28;20484;-78
2024/02/03 06:30:59;;;;;;;5.37;4.60;;;;;;;4.43;100.00;152501.09;5058999;28;20550;-78
2024/02/03 06:33:25;;;;;;;4.83;4.30;;;;;;;4.35;100.00;152479.19;5063882;28;20517;-78
2024/02/03 06:35:52;;;;;;;7.43;5.20;;;;;;;4.31;100.00;152470.19;5063673;28;20486;-77
2024/02/03 06:38:20;;;;;;;4.90;4.40;;;;;;;4.23;100.00;152449.59;5055346;28;20558;-79
2024/02/03 06:40:46;;;;;;;6.10;4.97;;;;;;;4.15;100.00;152430.28;5059121;28;20590;-78
2024/02/03 06:43:13;;;;;;;5.33;4.73;;;;;;;4.11;100.00;152419.94;5057466;28;20442;-78
2024/02/03 06:45:40;;;;;;;6.47;5.40;;;;;;;4.08;100.00;152410.91;5059685;28;20516;-77
2024/02/03 06:48:07;;;;;;;5.70;4.60;;;;;;;4.08;100.00;152412.22;5070580;28;20553;-78
2024/02/03 06:50:34;;;;;;;8.00;5.10;;;;;;;4.02;100.00;152396.78;5074478;28;20465;-78
2024/02/03 06:53:00;;;;;;;7.00;5.50;;;;;;;4.00;100.00;152390.31;5058173;28;20533;-78
2024/02/03 06:55:28;;;;;;;8.97;5.93;;;;;;;4.00;100.00;152390.31;5061685;28;20458;-78
2024/02/03 06:57:54;;;;;;;7.13;5.07;;;;;;;3.97;100.00;152383.88;5064994;28;20527;-77
2024/02/03 07:00:21;;;;;;;6.47;5.30;;;;;;;3.99;100.00;152387.75;5061499;28;20463;-79
2024/02/03 07:02:48;;;;;;;6.83;4.80;;;;;;;3.96;100.00;152380.03;5064216;28;21284;-78
2024/02/03 07:05:14;;;;;;;8.80;5.57;;;;;;;3.98;100.00;152385.16;5074657;28;20454;-79
2024/02/03 07:07:41;;;;;;;7.23;5.83;;;;;;;3.96;100.00;152380.03;5060298;28;20474;-78
2024/02/03 07:10:08;;;;;;;6.70;5.47;;;;;;;4.00;100.00;152391.59;5060379;28;20454;-78
2024/02/03 07:12:36;;;;;;;6.00;5.40;;;;;;;4.04;100.00;152400.63;5058150;28;20458;-78
2024/02/03 07:15:03;;;;;;;7.43;4.67;;;;;;;4.08;100.00;152410.91;5057626;28;20450;-78
2024/02/03 07:17:29;;;;;;;6.53;5.10;;;;;;;4.14;100.00;152426.38;5056263;28;20467;-78
2024/02/03 07:19:55;;;;;;;6.00;5.33;;;;;;;4.20;100.00;152443.16;5059359;28;20450;-78
2024/02/03 07:22:22;;;;;;;9.60;6.30;;;;;;;4.32;100.00;152472.75;5056412;28;20670;-78
2024/02/03 07:24:48;;;;;;;9.80;5.80;;;;;;;4.47;100.00;152510.13;5058280;28;20507;-78
2024/02/03 07:27:15;;;;;;;6.93;5.40;;;;;;;4.78;100.00;152591.28;5056723;28;20454;-78
2024/02/03 07:29:43;;;;;;;7.40;5.60;;;;;;;5.36;100.00;152738.22;5056445;28;20984;-78
2024/02/03 07:32:10;;;;;;;7.23;5.73;;;;;;;5.62;100.00;152805.25;5074258;28;20482;-79
2024/02/03 07:34:41;;;;;;;8.70;5.97;;;;;;;6.00;100.00;152903.34;5055986;28;20447;-79
2024/02/03 07:37:07;;;;;;;10.30;6.80;;;;;;;6.50;100.00;153029.75;5041706;28;20466;-78
2024/02/03 07:39:35;;;;;;;8.10;6.20;;;;;;;6.97;100.00;153151.09;5054900;28;20454;-79
2024/02/03 07:42:02;;;;;;;6.87;6.17;;;;;;;7.25;97.86;153223.38;5056593;28;20560;-78
2024/02/03 07:44:28;;;;;;;8.23;5.90;;;;;;;7.26;94.97;153224.66;5059001;28;20543;-78
2024/02/03 07:46:56;;;;;;;6.17;5.17;;;;;;;6.92;93.33;153136.88;5072850;28;20458;-78
2024/02/03 07:49:23;;;;;;;7.80;5.60;;;;;;;6.46;93.43;153019.47;5070502;28;20478;-79
2024/02/03 07:51:49;;;;;;;7.33;5.00;;;;;;;6.09;94.91;152925.22;5057246;28;20446;-78
2024/02/03 07:54:16;;;;;;;6.13;4.73;;;;;;;5.78;96.40;152846.53;5058288;28;20462;-78
2024/02/03 07:56:42;;;;;;;5.47;4.37;;;;;;;5.54;98.40;152785.91;5058063;28;20461;-78
2024/02/03 07:59:09;;;;;;;7.37;4.83;;;;;;;5.44;99.50;152760.13;5054756;28;20953;-78
2024/02/03 08:01:35;;;;;;;6.90;5.30;;;;;;;5.40;100.00;152748.56;5056539;28;20822;-78
2024/02/03 08:04:03;;;;;;;5.33;4.30;;;;;;;5.40;100.00;152748.56;5040050;28;20454;-78
2024/02/03 08:06:30;;;;;;;6.67;4.80;;;;;;;5.40;100.00;152748.56;5071762;28;20516;-78
2024/02/03 08:08:56;;;;;;;5.93;5.33;;;;;;;5.42;100.00;152753.69;5057648;28;20985;-78
2024/02/03 08:11:23;;;;;;;6.00;4.83;;;;;;;5.45;100.00;152761.44;5057976;28;20458;-78
2024/02/03 08:13:49;;;;;;;5.30;4.50;;;;;;;5.46;100.00;152765.28;5056848;28;20443;-78
2024/02/03 08:16:16;;;;;;;5.63;4.83;;;;;;;5.50;100.00;152774.31;5056903;28;20872;-78
2024/02/03 08:18:42;;;;;;;5.27;4.73;;;;;;;5.54;100.00;152784.63;5058036;28;20523;-78
2024/02/03 08:21:10;;;;;;;5.63;4.33;;;;;;;5.56;100.00;152789.75;5072850;28;20561;-78
2024/02/03 08:23:37;;;;;;;5.10;4.07;;;;;;;5.60;100.00;152800.09;5055391;28;20496;-78
2024/02/03 08:26:03;;;;;;;5.60;4.30;;;;;;;5.64;100.00;152809.16;5057418;28;20462;-78
2024/02/03 08:28:30;;;;;;;5.10;4.33;;;;;;;5.68;100.00;152820.75;5063105;28;20471;-78
2024/02/03 08:30:57;;;;;;;4.80;4.17;;;;;;;5.70;100.00;152825.88;5057061;28;20956;-78
2024/02/03 08:33:25;;;;;;;5.63;4.47;;;;;;;5.74;100.00;152836.22;5055223;28;20564;-78
2024/02/03 08:35:51;;;;;;;4.73;4.10;;;;;;;5.77;100.00;152843.94;5058805;28;20890;-78
2024/02/03 08:38:19;;;;;;;6.30;4.93;;;;;;;5.78;100.00;152846.53;5057885;28;20450;-78
2024/02/03 08:40:46;;;;;;;4.73;3.77;;;;;;;5.81;100.00;152854.28;5057031;28;20458;-78
2024/02/03 08:43:13;;;;;;;6.43;4.20;;;;;;;5.85;100.00;152863.38;5056521;28;20503;-78
2024/02/03 08:45:39;;;;;;;5.87;4.80;;;;;;;5.91;100.00;152878.81;5056772;28;20865;-78
2024/02/03 08:48:07;;;;;;;5.60;5.03;;;;;;;5.95;100.00;152890.44;5058971;28;20457;-79
2024/02/03 08:50:33;;;;;;;4.40;3.93;;;;;;;5.99;100.00;152900.75;5039590;28;20840;-75
2024/02/03 08:53:01;;;;;;;6.10;4.80;;;;;;;6.04;100.00;152913.63;5039498;28;20450;-78
2024/02/03 08:55:28;;;;;;;6.33;5.00;;;;;;;6.07;100.00;152921.38;5057624;28;20453;-78
2024/02/03 08:57:55;;;;;;;7.60;6.53;;;;;;;6.14;100.00;152939.44;5073407;28;20803;-78
2024/02/03 09:00:22;;;;;;;7.27;6.13;;;;;;;6.21;100.00;152954.94;5058900;28;20488;-78
2024/02/03 09:02:48;;;;;;;7.40;6.10;;;;;;;6.26;100.00;152969.13;5053398;28;22978;-78
2024/02/03 09:05:16;;;;;;;8.37;7.20;;;;;;;6.34;100.00;152989.78;5055144;28;20454;-78
2024/02/03 09:07:42;;;;;;;6.70;5.30;;;;;;;6.41;100.00;153006.53;5058055;28;20546;-78
2024/02/03 09:10:10;;;;;;;7.67;5.97;;;;;;;6.43;100.00;153013.03;5059121;28;20481;-78
2024/02/03 09:12:38;;;;;;;7.30;5.77;;;;;;;6.48;100.00;153024.63;5056947;28;20458;-78
2024/02/03 09:15:05;;;;;;;9.00;6.63;;;;;;;6.56;100.00;153045.25;5056949;28;20451;-78
2024/02/03 09:17:32;;;;;;;7.50;6.30;;;;;;;6.62;100.00;153060.72;5054287;28;20458;-78
2024/02/03 09:19:58;;;;;;;7.67;6.03;;;;;;;6.68;100.00;153076.22;5057097;28;20450;-78
2024/02/03 09:22:25;;;;;;;10.27;6.93;;;;;;;6.67;100.00;153073.66;5071982;28;20462;-78
2024/02/03 09:24:52;;;;;;;8.70;7.00;;;;;;;6.71;100.00;153085.28;5053336;28;21902;-78
2024/02/03 09:27:19;;;;;;;8.33;7.10;;;;;;;6.74;100.00;153091.72;5053090;28;20457;-78
2024/02/03 09:29:47;;;;;;;8.17;6.20;;;;;;;6.75;100.00;153094.31;5057203;28;20469;-78
2024/02/03 09:32:14;;;;;;;6.40;5.30;;;;;;;6.70;100.00;153081.38;5058015;28;21011;-78
2024/02/03 09:34:47;;;;;;;8.33;6.20;;;;;;;6.70;100.00;153082.66;5055141;28;20736;-78
2024/02/03 09:37:13;;;;;;;6.67;5.93;;;;;;;6.73;100.00;153090.41;5057047;28;20466;-78
2024/02/03 09:39:42;;;;;;;7.67;6.50;;;;;;;6.72;100.00;153086.56;5054378;28;20446;-78
2024/02/03 09:42:12;;;;;;;7.73;6.70;;;;;;;6.72;100.00;153086.56;5054989;28;20449;-79
2024/02/03 09:45:22;;;;;;;8.00;6.83;;;;;;;6.69;100.00;153078.81;5052544;28;20781;-77
2024/02/03 09:47:59;;;;;;;8.90;6.40;;;;;;;6.66;100.00;153072.38;5053330;28;20508;-77
2024/02/03 09:50:29;;;;;;;8.83;7.20;;;;;;;6.66;100.00;153072.38;5056522;28;20570;-76
2024/02/03 09:52:57;;;;;;;7.07;6.37;;;;;;;6.68;100.00;153076.22;5055857;28;20449;-76
2024/02/03 09:55:23;;;;;;;7.53;5.53;;;;;;;6.69;100.00;153078.81;5058149;28;20466;-77
2024/02/03 09:57:53;;;;;;;7.40;5.50;;;;;;;6.71;100.00;153083.97;5055338;28;20450;-77
2024/02/03 10:00:27;;;;;;;5.80;4.40;;;;;;;6.76;100.00;153096.88;5071999;28;20827;-77
2024/02/03 10:02:53;;;;;;;5.27;4.27;;;;;;;6.77;100.00;153099.47;5054531;28;21203;-77
2024/02/03 10:05:27;;;;;;;5.43;3.93;;;;;;;6.84;100.00;153116.22;5058249;28;20516;-77
2024/02/03 10:08:02;;;;;;;5.10;4.17;;;;;;;6.85;100.00;153118.81;5061895;28;20460;-77
2024/02/03 10:10:29;;;;;;;6.90;4.43;;;;;;;6.92;100.00;153138.19;5075562;28;20488;-77
2024/02/03 10:13:07;;;;;;;5.57;4.43;;;;;;;6.94;100.00;153143.34;5062224;28;20464;-77
2024/02/03 10:15:41;;;;;;;6.20;4.30;;;;;;;6.99;100.00;153156.25;5065821;28;20457;-77
2024/02/03 10:18:10;;;;;;;4.70;3.73;;;;;;;7.00;100.00;153158.84;5058722;28;20473;-77
2024/02/03 10:20:38;;;;;;;4.73;3.77;;;;;;;7.03;100.00;153166.59;5061323;28;20443;-77
2024/02/03 10:23:08;;;;;;;5.50;4.10;;;;;;;7.02;100.00;153164.00;5060466;28;20458;-77
2024/02/03 10:25:35;;;;;;;5.80;4.97;;;;;;;7.04;100.00;153169.16;5060998;28;20485;-77
2024/02/03 10:28:03;;;;;;;4.60;3.53;;;;;;;7.04;100.00;153167.91;5060266;28;20457;-78
2024/02/03 10:30:33;;;;;;;4.90;3.20;;;;;;;7.04;100.00;153169.16;5060901;28;21054;-77
2024/02/03 10:33:02;;;;;;;5.80;4.00;;;;;;;7.12;100.00;153188.56;5061850;28;20523;-77
2024/02/03 10:35:30;;;;;;;3.90;3.43;;;;;;;7.19;100.00;153206.63;5059434;28;20510;-77
2024/02/03 10:37:57;;;;;;;3.90;3.00;;;;;;;7.29;100.00;153233.72;5058933;28;20845;-76
2024/02/03 10:40:25;;;;;;;4.67;3.37;;;;;;;7.33;100.00;153244.03;5060427;28;20485;-77
2024/02/03 10:42:53;;;;;;;4.10;3.43;;;;;;;7.38;100.00;153255.69;5070850;28;20451;-77
2024/02/03 10:45:22;;;;;;;4.23;3.50;;;;;;;7.41;100.00;153262.16;5060286;28;20561;-77
2024/02/03 10:47:49;;;;;;;5.13;4.17;;;;;;;7.50;100.00;153285.38;5074295;28;20441;-77
2024/02/03 10:50:17;;;;;;;4.80;3.70;;;;;;;7.50;100.00;153285.38;5076380;22;20503;-77
2024/02/03 10:52:46;;;;;;;3.80;3.33;;;;;;;7.50;100.00;153286.66;4997430;28;20592;-76
2024/02/03 10:55:16;;;;;;;5.00;4.20;;;;;;;7.50;100.00;153286.66;5002217;28;20483;-76
2024/02/03 10:57:44;;;;;;;5.57;3.13;;;;;;;7.47;100.00;153278.91;5001033;28;20457;-76
2024/02/03 11:00:12;;;;;;;4.93;3.03;;;;;;;7.48;100.00;153281.50;4999400;28;20456;-76
2024/02/03 11:02:39;;;;;;;4.97;3.50;;;;;;;7.51;100.00;153287.97;4998871;28;20466;-77
2024/02/03 11:05:09;;;;;;;4.30;3.90;;;;;;;7.56;100.00;153300.88;4999365;28;20466;-76
2024/02/03 11:07:41;;;;;;;3.67;2.97;;;;;;;7.61;100.00;153315.09;5004223;28;20448;-77
2024/02/03 11:10:08;;;;;;;4.43;3.20;;;;;;;7.70;100.00;153337.06;4999597;28;20546;-76
2024/02/03 11:12:35;;;;;;;4.37;3.47;;;;;;;7.76;100.00;153352.53;5002972;28;20453;-76
2024/02/03 11:15:02;;;;;;;4.93;3.93;;;;;;;7.85;100.00;153375.81;4998091;28;20449;-76
2024/02/03 11:17:31;;;;;;;5.07;3.40;;;;;;;7.90;100.00;153388.72;5001290;28;20465;-77
2024/02/03 11:19:57;;;;;;;4.53;3.80;;;;;;;7.92;100.00;153393.88;5015668;28;20453;-77
2024/02/03 11:22:27;;;;;;;4.60;3.67;;;;;;;7.95;100.00;153402.94;4998722;28;20553;-77
2024/02/03 11:24:54;;;;;;;4.23;3.17;;;;;;;7.97;100.00;153408.09;4998466;28;20512;-77
2024/02/03 11:27:21;;;;;;;4.83;3.30;;;;;;;8.00;100.00;153414.53;4984542;28;20480;-77
2024/02/03 11:29:48;;;;;;;4.37;3.13;;;;;;;8.01;100.00;153415.84;4999354;28;21069;-77